Flight Briefing for CPX235

Departure Arrival
Phoenix Sky Harbor International Airport (KPHX)
Click to view FAA NOTAMS
Miami International Airport (KMIA)
Click to view FAA NOTAMS
Departure Time Arrival Time
N/A N/A
Aircraft Distance
B767-300BDSF 1723nm
Departure METAR Arrival METAR
KPHX 271051Z 25010KT 10SM FEW140 SCT160 19/06 A2980 RMK AO2 SLP077 T01940056 $ KMIA 271053Z 07007KT 10SM FEW024 26/20 A3005 RMK AO2 SLP175 T02610200
Suggested Route
ECLPS1 PHASE ELP FST J86 LEV Y290 BLVNS Y290 BAGGS SSCOT5


View recent IFR Routes data
Notes



Charts and Procedures

Charts for KPHX
No chart available
Charts for KMIA
No chart available

Windy.com Weather Map